HS Bizet — A8MI3 — position and weather

sailwx.info

Track history (hours):
 
Tides and Currents Weather Stations Pressure Air Temp Water Temp Dewpoint Dewpoint Depression Visibility Wind Speed Wind Dir Waves Ship Positions

HS Bizet

Last reported at 2016-Dec-05 21:18 UTC. Time now 2016-Dec-11 00:19 UTC.
Position N 29°36' W 119°54'.

Length 246 m; draft 8.8 m.

Type: Ship (hazmat cat A). MMSI: 636091349.

Date/timePositionNaut miles runAvg speedWind from/ knotsBaromVisibWave heightAir tempDewpointWater temp
2016-Dec-05 21:18N 29°36' W 119°54'3117.8
2016-Dec-05 19:33N 29°58' W 119°30'2317.7
2016-Dec-05 18:17N 30°15' W 119°12'5017.9
2016-Dec-05 15:31N 30°52' W 118°33'4318.1
2016-Dec-05 13:07N 31°26' W 118°02'3617.9
2016-Dec-05 11:05N 31°55' W 117°36'1018.0
2016-Dec-05 10:33N 32°05' W 117°37'1817.7
2016-Dec-05 09:33N 32°22' W 117°37'1717.3
2016-Dec-05 08:33N 32°39' W 117°39'1818.1
2016-Dec-05 07:33N 32°55' W 117°49'1414.3
2016-Dec-05 06:33N 33°07' W 117°58'1110.7
2016-Dec-05 05:33N 33°16' W 118°05'1110.6
2016-Dec-05 04:34N 33°26' W 118°10'1010.4
2016-Dec-05 03:33N 33°36' W 118°13'9 8.4
2016-Dec-05 02:32N 33°45' W 118°13'2 1.6
2016-Dec-05 01:32N 33°46' W 118°14'0 0.0
2016-Dec-05 00:11N 33°46' W 118°14'0 0.0
2016-Dec-04 23:32N 33°46' W 118°14'0 0.0
2016-Dec-04 22:32N 33°46' W 118°14'0 0.0
2016-Dec-04 19:14N 33°46' W 118°14'0 0.0
2016-Dec-04 18:32N 33°46' W 118°14'0 0.0
2016-Dec-04 17:32N 33°46' W 118°14'0 0.0
2016-Dec-04 16:32N 33°46' W 118°14'0 0.0
2016-Dec-04 12:05N 33°46' W 118°14'0 0.0
2016-Dec-04 11:32N 33°46' W 118°14'0 0.0
2016-Dec-04 10:29N 33°46' W 118°14'0 0.0
2016-Dec-04 09:11N 33°46' W 118°14'0 0.0
2016-Dec-04 08:32N 33°46' W 118°14'0 0.0
2016-Dec-04 07:26N 33°46' W 118°14'0 0.0
2016-Dec-04 06:32N 33°46' W 118°14'0 0.0
2016-Dec-04 01:23N 33°46' W 118°14'261 6.5
2016-Dec-02 09:21N 36°28' W 122°24'810.6
2016-Dec-02 08:33N 36°36' W 122°28'1010.2
2016-Dec-02 07:33N 36°45' W 122°32'1110.7
2016-Dec-02 06:33N 36°55' W 122°37'1110.8
2016-Dec-02 05:33N 37°05' W 122°41'1110.9
2016-Dec-02 04:33N 37°16' W 122°43'1111.3
2016-Dec-02 03:33N 37°27' W 122°44'1111.4
2016-Dec-02 02:33N 37°39' W 122°43'9 8.6
2016-Dec-02 01:33N 37°46' W 122°38'1514.8
2016-Dec-02 00:33N 37°48' W 122°19'0 0.3
2016-Dec-01 23:32N 37°48' W 122°19'0 0.0
2016-Dec-01 22:32N 37°48' W 122°19'0 0.0
2016-Dec-01 21:32N 37°48' W 122°19'0 0.0
2016-Dec-01 20:32N 37°48' W 122°19'0 0.0
2016-Dec-01 19:32N 37°48' W 122°19'0 0.0
2016-Dec-01 18:32N 37°48' W 122°19'0 0.0
2016-Dec-01 17:32N 37°48' W 122°19'0 0.0
2016-Dec-01 16:32N 37°48' W 122°19'0 0.0
2016-Dec-01 15:32N 37°48' W 122°19'0 0.0
2016-Dec-01 14:32N 37°48' W 122°19'0 0.0
2016-Dec-01 13:32N 37°48' W 122°19'0 0.0
2016-Dec-01 12:32N 37°48' W 122°19'0 0.0
2016-Dec-01 11:32N 37°48' W 122°19'0 0.0
2016-Dec-01 10:32N 37°48' W 122°19'0 0.0
2016-Dec-01 09:32N 37°48' W 122°19'0 0.0
2016-Dec-01 08:32N 37°48' W 122°19'0 0.0
2016-Dec-01 07:32N 37°48' W 122°19'0 0.0
2016-Dec-01 06:32N 37°48' W 122°19'0 0.0
2016-Dec-01 05:32N 37°48' W 122°19'0 0.0
2016-Dec-01 04:32N 37°48' W 122°19'0 0.0
2016-Dec-01 03:32N 37°48' W 122°19'0 0.0
2016-Dec-01 02:32N 37°48' W 122°19'2 1.7
2016-Dec-01 01:33N 37°48' W 122°21'3 2.9
2016-Dec-01 00:33N 37°49' W 122°25'8 8.3
2016-Nov-30 23:33N 37°47' W 122°35'1110.6
2016-Nov-30 22:32N 37°41' W 122°46'6 6.4
2016-Nov-30 21:33N 37°37' W 122°53'7 7.2
2016-Nov-30 20:33N 37°33' W 123°01'9 9.1
2016-Nov-30 19:33N 37°26' W 123°08'11110.7
2016-Nov-30 09:12N 36°03' W 124°40'811.9
2016-Nov-30 08:32N 35°57' W 124°46'1211.9
2016-Nov-30 07:34N 35°48' W 124°56'2412.0
2016-Nov-30 05:33N 35°30' W 125°15'1212.3
2016-Nov-30 04:34N 35°22' W 125°26'1512.2
2016-Nov-30 03:20N 35°10' W 125°37'  
Track history (hours):
 
Tides and Currents Weather Stations Pressure Air Temp Water Temp Dewpoint Dewpoint Depression Visibility Wind Speed Wind Dir Waves Ship Positions

HS Bizet

Last reported at 2016-Dec-05 21:18 UTC. Time now 2016-Dec-11 00:19 UTC.
Position N 29°36' W 119°54'.

Length 246 m; draft 8.8 m.

Type: Ship (hazmat cat A). MMSI: 636091349.

Date/timePositionNaut miles runAvg speedWind from/ knotsBaromVisibWave heightAir tempDewpointWater temp
2016-Dec-05 21:18N 29°36' W 119°54'3117.8
2016-Dec-05 19:33N 29°58' W 119°30'2317.7
2016-Dec-05 18:17N 30°15' W 119°12'5017.9
2016-Dec-05 15:31N 30°52' W 118°33'4318.1
2016-Dec-05 13:07N 31°26' W 118°02'3617.9
2016-Dec-05 11:05N 31°55' W 117°36'1018.0
2016-Dec-05 10:33N 32°05' W 117°37'1817.7
2016-Dec-05 09:33N 32°22' W 117°37'1717.3
2016-Dec-05 08:33N 32°39' W 117°39'1818.1
2016-Dec-05 07:33N 32°55' W 117°49'1414.3
2016-Dec-05 06:33N 33°07' W 117°58'1110.7
2016-Dec-05 05:33N 33°16' W 118°05'1110.6
2016-Dec-05 04:34N 33°26' W 118°10'1010.4
2016-Dec-05 03:33N 33°36' W 118°13'9 8.4
2016-Dec-05 02:32N 33°45' W 118°13'2 1.6
2016-Dec-05 01:32N 33°46' W 118°14'0 0.0
2016-Dec-05 00:11N 33°46' W 118°14'0 0.0
2016-Dec-04 23:32N 33°46' W 118°14'0 0.0
2016-Dec-04 22:32N 33°46' W 118°14'0 0.0
2016-Dec-04 19:14N 33°46' W 118°14'0 0.0
2016-Dec-04 18:32N 33°46' W 118°14'0 0.0
2016-Dec-04 17:32N 33°46' W 118°14'0 0.0
2016-Dec-04 16:32N 33°46' W 118°14'0 0.0
2016-Dec-04 12:05N 33°46' W 118°14'0 0.0
2016-Dec-04 11:32N 33°46' W 118°14'0 0.0
2016-Dec-04 10:29N 33°46' W 118°14'0 0.0
2016-Dec-04 09:11N 33°46' W 118°14'0 0.0
2016-Dec-04 08:32N 33°46' W 118°14'0 0.0
2016-Dec-04 07:26N 33°46' W 118°14'0 0.0
2016-Dec-04 06:32N 33°46' W 118°14'0 0.0
2016-Dec-04 01:23N 33°46' W 118°14'261 6.5
2016-Dec-02 09:21N 36°28' W 122°24'810.6
2016-Dec-02 08:33N 36°36' W 122°28'1010.2
2016-Dec-02 07:33N 36°45' W 122°32'1110.7
2016-Dec-02 06:33N 36°55' W 122°37'1110.8
2016-Dec-02 05:33N 37°05' W 122°41'1110.9
2016-Dec-02 04:33N 37°16' W 122°43'1111.3
2016-Dec-02 03:33N 37°27' W 122°44'1111.4
2016-Dec-02 02:33N 37°39' W 122°43'9 8.6
2016-Dec-02 01:33N 37°46' W 122°38'1514.8
2016-Dec-02 00:33N 37°48' W 122°19'0 0.3
2016-Dec-01 23:32N 37°48' W 122°19'0 0.0
2016-Dec-01 22:32N 37°48' W 122°19'0 0.0
2016-Dec-01 21:32N 37°48' W 122°19'0 0.0
2016-Dec-01 20:32N 37°48' W 122°19'0 0.0
2016-Dec-01 19:32N 37°48' W 122°19'0 0.0
2016-Dec-01 18:32N 37°48' W 122°19'0 0.0
2016-Dec-01 17:32N 37°48' W 122°19'0 0.0
2016-Dec-01 16:32N 37°48' W 122°19'0 0.0
2016-Dec-01 15:32N 37°48' W 122°19'0 0.0
2016-Dec-01 14:32N 37°48' W 122°19'0 0.0
2016-Dec-01 13:32N 37°48' W 122°19'0 0.0
2016-Dec-01 12:32N 37°48' W 122°19'0 0.0
2016-Dec-01 11:32N 37°48' W 122°19'0 0.0
2016-Dec-01 10:32N 37°48' W 122°19'0 0.0
2016-Dec-01 09:32N 37°48' W 122°19'0 0.0
2016-Dec-01 08:32N 37°48' W 122°19'0 0.0
2016-Dec-01 07:32N 37°48' W 122°19'0 0.0
2016-Dec-01 06:32N 37°48' W 122°19'0 0.0
2016-Dec-01 05:32N 37°48' W 122°19'0 0.0
2016-Dec-01 04:32N 37°48' W 122°19'0 0.0
2016-Dec-01 03:32N 37°48' W 122°19'0 0.0
2016-Dec-01 02:32N 37°48' W 122°19'2 1.7
2016-Dec-01 01:33N 37°48' W 122°21'3 2.9
2016-Dec-01 00:33N 37°49' W 122°25'8 8.3
2016-Nov-30 23:33N 37°47' W 122°35'1110.6
2016-Nov-30 22:32N 37°41' W 122°46'6 6.4
2016-Nov-30 21:33N 37°37' W 122°53'7 7.2
2016-Nov-30 20:33N 37°33' W 123°01'9 9.1
2016-Nov-30 19:33N 37°26' W 123°08'11110.7
2016-Nov-30 09:12N 36°03' W 124°40'811.9
2016-Nov-30 08:32N 35°57' W 124°46'1211.9
2016-Nov-30 07:34N 35°48' W 124°56'2412.0
2016-Nov-30 05:33N 35°30' W 125°15'1212.3
2016-Nov-30 04:34N 35°22' W 125°26'1512.2
2016-Nov-30 03:20N 35°10' W 125°37'  

Dump ship's entire track history